Time,TemperatureF,DewpointF,PressureIn,WindDirection,WindDirectionDegrees,WindSpeedMPH,WindSpeedGustMPH,Humidity,HourlyPrecipIn,Conditions,Clouds,dailyrainin,SoftwareType,DateUTC
2013-10-30 00:00:00,39.5,37.9,30.02,West,270,0.0,0.0,94,0.00,,,0.00,WeatherCatV1.23B14,2013-10-30 07:00:00,
2013-10-30 00:05:00,39.5,37.9,30.02,West,270,0.0,0.0,94,0.00,,,0.00,WeatherCatV1.23B14,2013-10-30 07:05:00,
2013-10-30 00:10:00,39.5,37.9,30.02,West,270,0.0,0.0,94,0.00,,,0.00,WeatherCatV1.23B14,2013-10-30 07:10:00,
2013-10-30 00:15:00,39.5,37.9,30.02,West,270,0.0,0.0,94,0.00,,,0.00,WeatherCatV1.23B14,2013-10-30 07:15:00,
2013-10-30 00:20:00,39.5,37.9,30.02,West,270,0.0,0.0,94,0.00,,,0.00,WeatherCatV1.23B14,2013-10-30 07:20:00,
2013-10-30 00:25:00,39.5,37.9,30.02,West,270,0.0,0.0,94,0.00,,,0.00,WeatherCatV1.23B14,2013-10-30 07:25:00,
2013-10-30 00:30:00,39.5,37.9,30.02,West,270,0.0,0.0,94,0.00,,,0.00,WeatherCatV1.23B14,2013-10-30 07:30:00,
2013-10-30 00:35:00,38.8,37.5,30.02,West,270,0.0,1.0,95,0.00,,,0.00,WeatherCatV1.23B14,2013-10-30 07:35:00,
2013-10-30 00:40:00,38.8,37.5,30.02,West,270,0.0,1.0,95,0.00,,,0.00,WeatherCatV1.23B14,2013-10-30 07:40:00,
2013-10-30 00:45:00,38.8,37.5,30.02,West,270,0.0,1.0,95,0.00,,,0.00,WeatherCatV1.23B14,2013-10-30 07:45:00,
2013-10-30 00:50:00,38.8,37.5,30.02,West,270,0.0,1.0,95,0.00,,,0.00,WeatherCatV1.23B14,2013-10-30 07:50:00,
2013-10-30 00:55:00,38.8,37.5,30.02,West,270,0.0,1.0,95,0.00,,,0.00,WeatherCatV1.23B14,2013-10-30 07:55:00,
2013-10-30 01:00:00,38.8,37.5,30.02,West,270,0.0,1.0,95,0.00,,,0.00,WeatherCatV1.23B14,2013-10-30 08:00:00,
2013-10-30 01:05:00,38.8,37.5,30.02,West,270,0.0,1.0,95,0.00,,,0.00,WeatherCatV1.23B14,2013-10-30 08:05:00,
2013-10-30 01:10:00,38.8,37.5,30.02,West,270,0.0,1.0,95,0.00,,,0.00,WeatherCatV1.23B14,2013-10-30 08:10:00,
2013-10-30 01:15:00,38.8,37.5,30.02,West,270,0.0,1.0,95,0.00,,,0.00,WeatherCatV1.23B14,2013-10-30 08:15:00,
2013-10-30 01:20:00,38.8,37.5,30.02,West,270,0.0,1.0,95,0.00,,,0.00,WeatherCatV1.23B14,2013-10-30 08:20:00,
2013-10-30 01:25:00,38.8,37.5,30.02,West,270,0.0,1.0,95,0.00,,,0.00,WeatherCatV1.23B14,2013-10-30 08:25:00,
2013-10-30 01:30:00,38.8,37.5,30.02,West,270,0.0,1.0,95,0.00,,,0.00,WeatherCatV1.23B14,2013-10-30 08:30:00,
2013-10-30 01:35:00,39.0,38.0,30.02,West,270,0.0,1.0,96,0.00,,,0.00,WeatherCatV1.23B14,2013-10-30 08:35:00,
2013-10-30 01:40:00,39.0,38.0,30.02,West,270,0.0,1.0,96,0.00,,,0.00,WeatherCatV1.23B14,2013-10-30 08:40:00,
2013-10-30 01:45:00,39.0,38.0,30.02,West,270,0.0,1.0,96,0.00,,,0.00,WeatherCatV1.23B14,2013-10-30 08:45:00,
2013-10-30 01:50:00,39.0,38.0,30.02,West,270,0.0,1.0,96,0.00,,,0.00,WeatherCatV1.23B14,2013-10-30 08:50:00,
2013-10-30 01:55:00,39.0,38.0,30.02,West,270,0.0,1.0,96,0.00,,,0.00,WeatherCatV1.23B14,2013-10-30 08:55:00,
2013-10-30 02:00:00,39.0,38.0,30.02,West,270,0.0,1.0,96,0.00,,,0.00,WeatherCatV1.23B14,2013-10-30 09:00:00,
2013-10-30 02:05:00,39.0,38.0,30.02,West,270,0.0,1.0,96,0.00,,,0.00,WeatherCatV1.23B14,2013-10-30 09:05:00,
2013-10-30 02:10:00,39.0,38.0,30.02,West,270,0.0,1.0,96,0.00,,,0.00,WeatherCatV1.23B14,2013-10-30 09:10:00,
2013-10-30 02:15:00,39.0,38.0,30.02,West,270,0.0,1.0,96,0.00,,,0.00,WeatherCatV1.23B14,2013-10-30 09:15:00,
2013-10-30 02:20:00,39.0,38.0,30.02,West,270,0.0,1.0,96,0.00,,,0.00,WeatherCatV1.23B14,2013-10-30 09:20:00,
2013-10-30 02:25:00,39.0,38.0,30.02,West,270,0.0,1.0,96,0.00,,,0.00,WeatherCatV1.23B14,2013-10-30 09:25:00,
2013-10-30 02:30:00,39.0,38.0,30.02,West,270,0.0,1.0,96,0.00,,,0.00,WeatherCatV1.23B14,2013-10-30 09:30:00,
2013-10-30 02:35:00,37.7,36.4,30.03,NE,45,0.0,1.0,95,0.00,,,0.00,WeatherCatV1.23B14,2013-10-30 09:35:00,
2013-10-30 02:40:00,37.7,36.4,30.03,NE,45,0.0,1.0,95,0.00,,,0.00,WeatherCatV1.23B14,2013-10-30 09:40:00,
2013-10-30 02:45:00,37.7,36.4,30.03,NE,45,0.0,1.0,95,0.00,,,0.00,WeatherCatV1.23B14,2013-10-30 09:45:00,
2013-10-30 02:50:00,37.7,36.4,30.03,NE,45,0.0,1.0,95,0.00,,,0.00,WeatherCatV1.23B14,2013-10-30 09:50:00,
2013-10-30 02:55:00,37.7,36.4,30.03,NE,45,0.0,1.0,95,0.00,,,0.00,WeatherCatV1.23B14,2013-10-30 09:55:00,
2013-10-30 03:00:00,37.7,36.4,30.03,NE,45,0.0,1.0,95,0.00,,,0.00,WeatherCatV1.23B14,2013-10-30 10:00:00,
2013-10-30 03:05:00,37.7,36.4,30.03,NE,45,0.0,1.0,95,0.00,,,0.00,WeatherCatV1.23B14,2013-10-30 10:05:00,
2013-10-30 03:10:00,37.7,36.4,30.03,NE,45,0.0,1.0,95,0.00,,,0.00,WeatherCatV1.23B14,2013-10-30 10:10:00,
2013-10-30 03:15:00,37.7,36.4,30.03,NE,45,0.0,1.0,95,0.00,,,0.00,WeatherCatV1.23B14,2013-10-30 10:15:00,
2013-10-30 03:20:00,37.7,36.4,30.03,NE,45,0.0,1.0,95,0.00,,,0.00,WeatherCatV1.23B14,2013-10-30 10:20:00,
2013-10-30 03:25:00,37.7,36.4,30.03,NE,45,0.0,1.0,95,0.00,,,0.00,WeatherCatV1.23B14,2013-10-30 10:25:00,
2013-10-30 03:30:00,37.7,36.4,30.03,NE,45,0.0,1.0,95,0.00,,,0.00,WeatherCatV1.23B14,2013-10-30 10:30:00,
2013-10-30 03:35:00,38.2,37.2,30.04,NE,45,0.0,0.0,96,0.00,,,0.00,WeatherCatV1.23B14,2013-10-30 10:35:00,
2013-10-30 03:40:00,38.2,37.2,30.04,NE,45,0.0,0.0,96,0.00,,,0.00,WeatherCatV1.23B14,2013-10-30 10:40:00,
2013-10-30 03:45:00,38.2,37.2,30.04,NE,45,0.0,0.0,96,0.00,,,0.00,WeatherCatV1.23B14,2013-10-30 10:45:00,
2013-10-30 03:50:00,38.2,37.2,30.04,NE,45,0.0,0.0,96,0.00,,,0.00,WeatherCatV1.23B14,2013-10-30 10:50:00,
2013-10-30 03:55:00,38.2,37.2,30.04,NE,45,0.0,0.0,96,0.00,,,0.00,WeatherCatV1.23B14,2013-10-30 10:55:00,
2013-10-30 04:00:00,38.2,37.2,30.04,NE,45,0.0,0.0,96,0.00,,,0.00,WeatherCatV1.23B14,2013-10-30 11:00:00,
2013-10-30 04:05:00,38.2,37.2,30.04,NE,45,0.0,0.0,96,0.00,,,0.00,WeatherCatV1.23B14,2013-10-30 11:05:00,
2013-10-30 04:10:00,38.2,37.2,30.04,NE,45,0.0,0.0,96,0.00,,,0.00,WeatherCatV1.23B14,2013-10-30 11:10:00,
2013-10-30 04:15:00,38.2,37.2,30.04,NE,45,0.0,0.0,96,0.00,,,0.00,WeatherCatV1.23B14,2013-10-30 11:15:00,
2013-10-30 04:20:00,38.2,37.2,30.04,NE,45,0.0,0.0,96,0.00,,,0.00,WeatherCatV1.23B14,2013-10-30 11:20:00,
2013-10-30 04:25:00,38.2,37.2,30.04,NE,45,0.0,0.0,96,0.00,,,0.00,WeatherCatV1.23B14,2013-10-30 11:25:00,
2013-10-30 04:30:00,38.2,37.2,30.04,NE,45,0.0,0.0,96,0.00,,,0.00,WeatherCatV1.23B14,2013-10-30 11:30:00,
2013-10-30 04:35:00,37.5,36.5,30.04,NE,45,0.0,1.0,96,0.00,,,0.00,WeatherCatV1.23B14,2013-10-30 11:35:00,
2013-10-30 04:40:00,37.5,36.5,30.04,NE,45,0.0,1.0,96,0.00,,,0.00,WeatherCatV1.23B14,2013-10-30 11:40:00,
2013-10-30 04:45:00,37.5,36.5,30.04,NE,45,0.0,1.0,96,0.00,,,0.00,WeatherCatV1.23B14,2013-10-30 11:45:00,
2013-10-30 04:50:00,37.5,36.5,30.04,NE,45,0.0,1.0,96,0.00,,,0.00,WeatherCatV1.23B14,2013-10-30 11:50:00,
2013-10-30 04:55:00,37.5,36.5,30.04,NE,45,0.0,1.0,96,0.00,,,0.00,WeatherCatV1.23B14,2013-10-30 11:55:00,
2013-10-30 05:00:00,37.5,36.5,30.04,NE,45,0.0,1.0,96,0.00,,,0.00,WeatherCatV1.23B14,2013-10-30 12:00:00,
2013-10-30 05:05:00,37.5,36.5,30.04,NE,45,0.0,1.0,96,0.00,,,0.00,WeatherCatV1.23B14,2013-10-30 12:05:00,
2013-10-30 05:10:00,37.5,36.5,30.04,NE,45,0.0,1.0,96,0.00,,,0.00,WeatherCatV1.23B14,2013-10-30 12:10:00,
2013-10-30 05:15:00,37.5,36.5,30.04,NE,45,0.0,1.0,96,0.00,,,0.00,WeatherCatV1.23B14,2013-10-30 12:15:00,
2013-10-30 05:20:00,37.5,36.5,30.04,NE,45,0.0,1.0,96,0.00,,,0.00,WeatherCatV1.23B14,2013-10-30 12:20:00,
2013-10-30 05:25:00,37.5,36.5,30.04,NE,45,0.0,1.0,96,0.00,,,0.00,WeatherCatV1.23B14,2013-10-30 12:25:00,
2013-10-30 05:30:00,37.5,36.5,30.04,NE,45,0.0,1.0,96,0.00,,,0.00,WeatherCatV1.23B14,2013-10-30 12:30:00,
2013-10-30 05:35:00,36.1,35.1,30.05,NE,45,0.0,1.0,96,0.00,,,0.00,WeatherCatV1.23B14,2013-10-30 12:35:00,
2013-10-30 05:40:00,36.1,35.1,30.05,NE,45,0.0,1.0,96,0.00,,,0.00,WeatherCatV1.23B14,2013-10-30 12:40:00,
2013-10-30 05:45:00,36.1,35.1,30.05,NE,45,0.0,1.0,96,0.00,,,0.00,WeatherCatV1.23B14,2013-10-30 12:45:00,
2013-10-30 05:50:00,36.1,35.1,30.05,NE,45,0.0,1.0,96,0.00,,,0.00,WeatherCatV1.23B14,2013-10-30 12:50:00,
2013-10-30 05:55:00,36.1,35.1,30.05,NE,45,0.0,1.0,96,0.00,,,0.00,WeatherCatV1.23B14,2013-10-30 12:55:00,
2013-10-30 06:00:00,36.1,35.1,30.05,NE,45,0.0,1.0,96,0.00,,,0.00,WeatherCatV1.23B14,2013-10-30 13:00:00,
2013-10-30 06:05:00,36.1,35.1,30.05,NE,45,0.0,1.0,96,0.00,,,0.00,WeatherCatV1.23B14,2013-10-30 13:05:00,
2013-10-30 06:10:00,36.1,35.1,30.05,NE,45,0.0,1.0,96,0.00,,,0.00,WeatherCatV1.23B14,2013-10-30 13:10:00,
2013-10-30 06:15:00,36.1,35.1,30.05,NE,45,0.0,1.0,96,0.00,,,0.00,WeatherCatV1.23B14,2013-10-30 13:15:00,
2013-10-30 06:20:00,36.1,35.1,30.05,NE,45,0.0,1.0,96,0.00,,,0.00,WeatherCatV1.23B14,2013-10-30 13:20:00,
2013-10-30 06:25:00,36.1,35.1,30.05,NE,45,0.0,1.0,96,0.00,,,0.00,WeatherCatV1.23B14,2013-10-30 13:25:00,
2013-10-30 06:30:00,36.1,35.1,30.05,NE,45,0.0,1.0,96,0.00,,,0.00,WeatherCatV1.23B14,2013-10-30 13:30:00,
2013-10-30 06:35:00,36.2,35.2,30.07,NE,45,0.0,0.0,96,0.00,,,0.00,WeatherCatV1.23B14,2013-10-30 13:35:00,
2013-10-30 06:40:00,36.2,35.2,30.07,NE,45,0.0,0.0,96,0.00,,,0.00,WeatherCatV1.23B14,2013-10-30 13:40:00,
2013-10-30 06:45:00,36.2,35.2,30.07,NE,45,0.0,0.0,96,0.00,,,0.00,WeatherCatV1.23B14,2013-10-30 13:45:00,
2013-10-30 06:50:00,36.2,35.2,30.07,NE,45,0.0,0.0,96,0.00,,,0.00,WeatherCatV1.23B14,2013-10-30 13:50:00,
2013-10-30 06:55:00,36.2,35.2,30.07,NE,45,0.0,0.0,96,0.00,,,0.00,WeatherCatV1.23B14,2013-10-30 13:55:00,
2013-10-30 07:00:00,36.2,35.2,30.07,NE,45,0.0,0.0,96,0.00,,,0.00,WeatherCatV1.23B14,2013-10-30 14:00:00,
2013-10-30 07:05:00,36.2,35.2,30.07,NE,45,0.0,0.0,96,0.00,,,0.00,WeatherCatV1.23B14,2013-10-30 14:05:00,
2013-10-30 07:10:00,36.2,35.2,30.07,NE,45,0.0,0.0,96,0.00,,,0.00,WeatherCatV1.23B14,2013-10-30 14:10:00,
2013-10-30 07:15:00,36.2,35.2,30.07,NE,45,0.0,0.0,96,0.00,,,0.00,WeatherCatV1.23B14,2013-10-30 14:15:00,
2013-10-30 07:20:00,36.2,35.2,30.07,NE,45,0.0,0.0,96,0.00,,,0.00,WeatherCatV1.23B14,2013-10-30 14:20:00,
2013-10-30 07:25:00,36.2,35.2,30.07,NE,45,0.0,0.0,96,0.00,,,0.00,WeatherCatV1.23B14,2013-10-30 14:25:00,
2013-10-30 07:30:00,36.2,35.2,30.07,NE,45,0.0,0.0,96,0.00,,,0.00,WeatherCatV1.23B14,2013-10-30 14:30:00,
2013-10-30 07:35:00,36.0,35.0,30.08,NE,45,0.0,1.0,96,0.00,,,0.00,WeatherCatV1.23B14,2013-10-30 14:35:00,
2013-10-30 07:40:00,36.0,35.0,30.08,NE,45,0.0,1.0,96,0.00,,,0.00,WeatherCatV1.23B14,2013-10-30 14:40:00,
2013-10-30 07:45:00,36.0,35.0,30.08,NE,45,0.0,1.0,96,0.00,,,0.00,WeatherCatV1.23B14,2013-10-30 14:45:00,
2013-10-30 07:50:00,36.0,35.0,30.08,NE,45,0.0,1.0,96,0.00,,,0.00,WeatherCatV1.23B14,2013-10-30 14:50:00,
2013-10-30 07:55:00,36.0,35.0,30.08,NE,45,0.0,1.0,96,0.00,,,0.00,WeatherCatV1.23B14,2013-10-30 14:55:00,
2013-10-30 08:00:00,36.0,35.0,30.08,NE,45,0.0,1.0,96,0.00,,,0.00,WeatherCatV1.23B14,2013-10-30 15:00:00,
2013-10-30 08:05:00,36.0,35.0,30.08,NE,45,0.0,1.0,96,0.00,,,0.00,WeatherCatV1.23B14,2013-10-30 15:05:00,
2013-10-30 08:10:00,36.0,35.0,30.08,NE,45,0.0,1.0,96,0.00,,,0.00,WeatherCatV1.23B14,2013-10-30 15:10:00,
2013-10-30 08:15:00,36.0,35.0,30.08,NE,45,0.0,1.0,96,0.00,,,0.00,WeatherCatV1.23B14,2013-10-30 15:15:00,
2013-10-30 08:20:00,36.0,35.0,30.08,NE,45,0.0,1.0,96,0.00,,,0.00,WeatherCatV1.23B14,2013-10-30 15:20:00,
2013-10-30 08:25:00,36.0,35.0,30.08,NE,45,0.0,1.0,96,0.00,,,0.00,WeatherCatV1.23B14,2013-10-30 15:25:00,
2013-10-30 08:30:00,36.0,35.0,30.08,NE,45,0.0,1.0,96,0.00,,,0.00,WeatherCatV1.23B14,2013-10-30 15:30:00,
2013-10-30 08:35:00,35.9,34.3,30.09,NE,45,0.0,1.0,94,0.00,,,0.00,WeatherCatV1.23B14,2013-10-30 15:35:00,
2013-10-30 08:40:00,35.9,34.3,30.09,NE,45,0.0,1.0,94,0.00,,,0.00,WeatherCatV1.23B14,2013-10-30 15:40:00,
2013-10-30 08:45:00,35.9,34.3,30.09,NE,45,0.0,1.0,94,0.00,,,0.00,WeatherCatV1.23B14,2013-10-30 15:45:00,
2013-10-30 08:50:00,35.9,34.3,30.09,NE,45,0.0,1.0,94,0.00,,,0.00,WeatherCatV1.23B14,2013-10-30 15:50:00,
2013-10-30 08:55:00,35.9,34.3,30.09,NE,45,0.0,1.0,94,0.00,,,0.00,WeatherCatV1.23B14,2013-10-30 15:55:00,
2013-10-30 09:00:00,35.9,34.3,30.09,NE,45,0.0,1.0,94,0.00,,,0.00,WeatherCatV1.23B14,2013-10-30 16:00:00,
2013-10-30 09:05:00,35.9,34.3,30.09,NE,45,0.0,1.0,94,0.00,,,0.00,WeatherCatV1.23B14,2013-10-30 16:05:00,
2013-10-30 09:10:00,35.9,34.3,30.09,NE,45,0.0,1.0,94,0.00,,,0.00,WeatherCatV1.23B14,2013-10-30 16:10:00,
2013-10-30 09:15:00,35.9,34.3,30.09,NE,45,0.0,1.0,94,0.00,,,0.00,WeatherCatV1.23B14,2013-10-30 16:15:00,
2013-10-30 09:20:00,35.9,34.3,30.09,NE,45,0.0,1.0,94,0.00,,,0.00,WeatherCatV1.23B14,2013-10-30 16:20:00,
2013-10-30 09:25:00,35.9,34.3,30.09,NE,45,0.0,1.0,94,0.00,,,0.00,WeatherCatV1.23B14,2013-10-30 16:25:00,
2013-10-30 09:30:00,35.9,34.3,30.09,NE,45,0.0,1.0,94,0.00,,,0.00,WeatherCatV1.23B14,2013-10-30 16:30:00,
2013-10-30 09:35:00,39.4,36.7,30.12,NE,45,0.0,0.0,90,0.00,,,0.00,WeatherCatV1.23B14,2013-10-30 16:35:00,
2013-10-30 09:40:00,39.4,36.7,30.12,NE,45,0.0,0.0,90,0.00,,,0.00,WeatherCatV1.23B14,2013-10-30 16:40:00,
2013-10-30 09:45:00,39.4,36.7,30.12,NE,45,0.0,0.0,90,0.00,,,0.00,WeatherCatV1.23B14,2013-10-30 16:45:00,
2013-10-30 09:50:00,39.4,36.7,30.12,NE,45,0.0,0.0,90,0.00,,,0.00,WeatherCatV1.23B14,2013-10-30 16:50:00,
2013-10-30 09:55:00,39.4,36.7,30.12,NE,45,0.0,0.0,90,0.00,,,0.00,WeatherCatV1.23B14,2013-10-30 16:55:00,
2013-10-30 10:00:00,39.4,36.7,30.12,NE,45,0.0,0.0,90,0.00,,,0.00,WeatherCatV1.23B14,2013-10-30 17:00:00,
2013-10-30 10:05:00,39.4,36.7,30.12,NE,45,0.0,0.0,90,0.00,,,0.00,WeatherCatV1.23B14,2013-10-30 17:05:00,
2013-10-30 10:10:00,39.4,36.7,30.12,NE,45,0.0,0.0,90,0.00,,,0.00,WeatherCatV1.23B14,2013-10-30 17:10:00,
2013-10-30 10:15:00,39.4,36.7,30.12,NE,45,0.0,0.0,90,0.00,,,0.00,WeatherCatV1.23B14,2013-10-30 17:15:00,
2013-10-30 10:20:00,39.4,36.7,30.12,NE,45,0.0,0.0,90,0.00,,,0.00,WeatherCatV1.23B14,2013-10-30 17:20:00,
2013-10-30 10:25:00,39.4,36.7,30.12,NE,45,0.0,0.0,90,0.00,,,0.00,WeatherCatV1.23B14,2013-10-30 17:25:00,
2013-10-30 10:30:00,39.4,36.7,30.12,NE,45,0.0,0.0,90,0.00,,,0.00,WeatherCatV1.23B14,2013-10-30 17:30:00,
2013-10-30 10:35:00,46.1,40.3,30.13,NE,45,0.0,0.0,80,0.00,,,0.00,WeatherCatV1.23B14,2013-10-30 17:35:00,
2013-10-30 10:40:00,46.1,40.3,30.13,NE,45,0.0,0.0,80,0.00,,,0.00,WeatherCatV1.23B14,2013-10-30 17:40:00,
2013-10-30 10:45:00,46.1,40.3,30.13,NE,45,0.0,0.0,80,0.00,,,0.00,WeatherCatV1.23B14,2013-10-30 17:45:00,
2013-10-30 10:50:00,46.1,40.3,30.13,NE,45,0.0,0.0,80,0.00,,,0.00,WeatherCatV1.23B14,2013-10-30 17:50:00,
2013-10-30 10:55:00,46.1,40.3,30.13,NE,45,0.0,0.0,80,0.00,,,0.00,WeatherCatV1.23B14,2013-10-30 17:55:00,
2013-10-30 11:00:00,46.1,40.3,30.13,NE,45,0.0,0.0,80,0.00,,,0.00,WeatherCatV1.23B14,2013-10-30 18:00:00,
2013-10-30 11:05:00,46.1,40.3,30.13,NE,45,0.0,0.0,80,0.00,,,0.00,WeatherCatV1.23B14,2013-10-30 18:05:00,
2013-10-30 11:10:00,46.1,40.3,30.13,NE,45,0.0,0.0,80,0.00,,,0.00,WeatherCatV1.23B14,2013-10-30 18:10:00,
2013-10-30 11:15:00,46.1,40.3,30.13,NE,45,0.0,0.0,80,0.00,,,0.00,WeatherCatV1.23B14,2013-10-30 18:15:00,
2013-10-30 11:20:00,46.1,40.3,30.13,NE,45,0.0,0.0,80,0.00,,,0.00,WeatherCatV1.23B14,2013-10-30 18:20:00,
2013-10-30 11:25:00,46.1,40.3,30.13,NE,45,0.0,0.0,80,0.00,,,0.00,WeatherCatV1.23B14,2013-10-30 18:25:00,
2013-10-30 11:30:00,46.1,40.3,30.13,NE,45,0.0,0.0,80,0.00,,,0.00,WeatherCatV1.23B14,2013-10-30 18:30:00,
2013-10-30 11:35:00,51.7,39.1,30.14,SW,225,0.0,3.0,62,0.00,,,0.00,WeatherCatV1.23B14,2013-10-30 18:35:00,
2013-10-30 11:40:00,51.7,39.1,30.14,SW,225,0.0,3.0,62,0.00,,,0.00,WeatherCatV1.23B14,2013-10-30 18:40:00,
2013-10-30 11:45:00,51.7,39.1,30.14,SW,225,0.0,3.0,62,0.00,,,0.00,WeatherCatV1.23B14,2013-10-30 18:45:00,
2013-10-30 11:50:00,51.7,39.1,30.14,SW,225,0.0,3.0,62,0.00,,,0.00,WeatherCatV1.23B14,2013-10-30 18:50:00,
2013-10-30 11:55:00,51.7,39.1,30.14,SW,225,0.0,3.0,62,0.00,,,0.00,WeatherCatV1.23B14,2013-10-30 18:55:00,
2013-10-30 12:00:00,51.7,39.1,30.14,SW,225,0.0,3.0,62,0.00,,,0.00,WeatherCatV1.23B14,2013-10-30 19:00:00,
2013-10-30 12:05:00,51.7,39.1,30.14,SW,225,0.0,3.0,62,0.00,,,0.00,WeatherCatV1.23B14,2013-10-30 19:05:00,
2013-10-30 12:10:00,51.7,39.1,30.14,SW,225,0.0,3.0,62,0.00,,,0.00,WeatherCatV1.23B14,2013-10-30 19:10:00,
2013-10-30 12:15:00,51.7,39.1,30.14,SW,225,0.0,3.0,62,0.00,,,0.00,WeatherCatV1.23B14,2013-10-30 19:15:00,
2013-10-30 12:20:00,51.7,39.1,30.14,SW,225,0.0,3.0,62,0.00,,,0.00,WeatherCatV1.23B14,2013-10-30 19:20:00,
2013-10-30 12:25:00,51.7,39.1,30.14,SW,225,0.0,3.0,62,0.00,,,0.00,WeatherCatV1.23B14,2013-10-30 19:25:00,
2013-10-30 12:30:00,51.7,39.1,30.14,SW,225,0.0,3.0,62,0.00,,,0.00,WeatherCatV1.23B14,2013-10-30 19:30:00,
2013-10-30 12:35:00,54.9,38.1,30.14,West,270,0.0,6.0,53,0.00,,,0.00,WeatherCatV1.23B14,2013-10-30 19:35:00,
2013-10-30 12:40:00,54.9,38.1,30.14,West,270,0.0,6.0,53,0.00,,,0.00,WeatherCatV1.23B14,2013-10-30 19:40:00,
2013-10-30 12:45:00,54.9,38.1,30.14,West,270,0.0,6.0,53,0.00,,,0.00,WeatherCatV1.23B14,2013-10-30 19:45:00,
2013-10-30 12:50:00,54.9,38.1,30.14,West,270,0.0,6.0,53,0.00,,,0.00,WeatherCatV1.23B14,2013-10-30 19:50:00,
2013-10-30 12:55:00,54.9,38.1,30.14,West,270,0.0,6.0,53,0.00,,,0.00,WeatherCatV1.23B14,2013-10-30 19:55:00,
2013-10-30 13:00:00,54.9,38.1,30.14,West,270,0.0,6.0,53,0.00,,,0.00,WeatherCatV1.23B14,2013-10-30 20:00:00,
2013-10-30 13:05:00,54.9,38.1,30.14,West,270,0.0,6.0,53,0.00,,,0.00,WeatherCatV1.23B14,2013-10-30 20:05:00,
2013-10-30 13:10:00,54.9,38.1,30.14,West,270,0.0,6.0,53,0.00,,,0.00,WeatherCatV1.23B14,2013-10-30 20:10:00,
2013-10-30 13:15:00,54.9,38.1,30.14,West,270,0.0,6.0,53,0.00,,,0.00,WeatherCatV1.23B14,2013-10-30 20:15:00,
2013-10-30 13:20:00,54.9,38.1,30.14,West,270,0.0,6.0,53,0.00,,,0.00,WeatherCatV1.23B14,2013-10-30 20:20:00,
2013-10-30 13:25:00,54.9,38.1,30.14,West,270,0.0,6.0,53,0.00,,,0.00,WeatherCatV1.23B14,2013-10-30 20:25:00,
2013-10-30 13:30:00,54.9,38.1,30.14,West,270,0.0,6.0,53,0.00,,,0.00,WeatherCatV1.23B14,2013-10-30 20:30:00,
2013-10-30 13:35:00,56.6,39.2,30.13,West,270,1.0,5.0,52,0.00,,,0.00,WeatherCatV1.23B14,2013-10-30 20:35:00,
2013-10-30 13:40:00,56.6,39.2,30.13,West,270,1.0,5.0,52,0.00,,,0.00,WeatherCatV1.23B14,2013-10-30 20:40:00,
2013-10-30 13:45:00,56.6,39.2,30.13,West,270,1.0,5.0,52,0.00,,,0.00,WeatherCatV1.23B14,2013-10-30 20:45:00,
2013-10-30 13:50:00,56.6,39.2,30.13,West,270,1.0,5.0,52,0.00,,,0.00,WeatherCatV1.23B14,2013-10-30 20:50:00,
2013-10-30 13:55:00,56.6,39.2,30.13,West,270,1.0,5.0,52,0.00,,,0.00,WeatherCatV1.23B14,2013-10-30 20:55:00,
2013-10-30 14:00:00,56.6,39.2,30.13,West,270,1.0,5.0,52,0.00,,,0.00,WeatherCatV1.23B14,2013-10-30 21:00:00,
2013-10-30 14:05:00,56.6,39.2,30.13,West,270,1.0,5.0,52,0.00,,,0.00,WeatherCatV1.23B14,2013-10-30 21:05:00,
2013-10-30 14:10:00,56.6,39.2,30.13,West,270,1.0,5.0,52,0.00,,,0.00,WeatherCatV1.23B14,2013-10-30 21:10:00,
2013-10-30 14:15:00,56.6,39.2,30.13,West,270,1.0,5.0,52,0.00,,,0.00,WeatherCatV1.23B14,2013-10-30 21:15:00,
2013-10-30 14:20:00,56.6,39.2,30.13,West,270,1.0,5.0,52,0.00,,,0.00,WeatherCatV1.23B14,2013-10-30 21:20:00,
2013-10-30 14:25:00,56.6,39.2,30.13,West,270,1.0,5.0,52,0.00,,,0.00,WeatherCatV1.23B14,2013-10-30 21:25:00,
2013-10-30 14:30:00,56.6,39.2,30.13,West,270,1.0,5.0,52,0.00,,,0.00,WeatherCatV1.23B14,2013-10-30 21:30:00,
2013-10-30 14:35:00,58.9,38.2,30.11,West,270,1.0,7.0,46,0.00,,,0.00,WeatherCatV1.23B14,2013-10-30 21:35:00,
2013-10-30 14:40:00,58.9,38.2,30.11,West,270,1.0,7.0,46,0.00,,,0.00,WeatherCatV1.23B14,2013-10-30 21:40:00,
2013-10-30 14:45:00,58.9,38.2,30.11,West,270,1.0,7.0,46,0.00,,,0.00,WeatherCatV1.23B14,2013-10-30 21:45:00,
2013-10-30 14:50:00,58.9,38.2,30.11,West,270,1.0,7.0,46,0.00,,,0.00,WeatherCatV1.23B14,2013-10-30 21:50:00,
2013-10-30 14:55:00,58.9,38.2,30.11,West,270,1.0,7.0,46,0.00,,,0.00,WeatherCatV1.23B14,2013-10-30 21:55:00,
2013-10-30 15:00:00,58.9,38.2,30.11,West,270,1.0,7.0,46,0.00,,,0.00,WeatherCatV1.23B14,2013-10-30 22:00:00,
2013-10-30 15:05:00,58.9,38.2,30.11,West,270,1.0,7.0,46,0.00,,,0.00,WeatherCatV1.23B14,2013-10-30 22:05:00,
2013-10-30 15:10:00,58.9,38.2,30.11,West,270,1.0,7.0,46,0.00,,,0.00,WeatherCatV1.23B14,2013-10-30 22:10:00,
2013-10-30 15:15:00,58.9,38.2,30.11,West,270,1.0,7.0,46,0.00,,,0.00,WeatherCatV1.23B14,2013-10-30 22:15:00,
2013-10-30 15:20:00,58.9,38.2,30.11,West,270,1.0,7.0,46,0.00,,,0.00,WeatherCatV1.23B14,2013-10-30 22:20:00,
2013-10-30 15:25:00,58.9,38.2,30.11,West,270,1.0,7.0,46,0.00,,,0.00,WeatherCatV1.23B14,2013-10-30 22:25:00,
2013-10-30 15:30:00,58.9,38.2,30.11,West,270,1.0,7.0,46,0.00,,,0.00,WeatherCatV1.23B14,2013-10-30 22:30:00,
2013-10-30 15:35:00,58.4,38.8,30.10,West,270,2.0,5.0,48,0.00,,,0.00,WeatherCatV1.23B14,2013-10-30 22:35:00,
2013-10-30 15:40:00,58.4,38.8,30.10,West,270,2.0,5.0,48,0.00,,,0.00,WeatherCatV1.23B14,2013-10-30 22:40:00,
2013-10-30 15:45:00,58.4,38.8,30.10,West,270,2.0,5.0,48,0.00,,,0.00,WeatherCatV1.23B14,2013-10-30 22:45:00,
2013-10-30 15:50:00,58.4,38.8,30.10,West,270,2.0,5.0,48,0.00,,,0.00,WeatherCatV1.23B14,2013-10-30 22:50:00,
2013-10-30 15:55:00,58.4,38.8,30.10,West,270,2.0,5.0,48,0.00,,,0.00,WeatherCatV1.23B14,2013-10-30 22:55:00,
2013-10-30 16:00:00,58.4,38.8,30.10,West,270,2.0,5.0,48,0.00,,,0.00,WeatherCatV1.23B14,2013-10-30 23:00:00,
2013-10-30 16:05:00,58.4,38.8,30.10,West,270,2.0,5.0,48,0.00,,,0.00,WeatherCatV1.23B14,2013-10-30 23:05:00,
2013-10-30 16:10:00,58.4,38.8,30.10,West,270,2.0,5.0,48,0.00,,,0.00,WeatherCatV1.23B14,2013-10-30 23:10:00,
2013-10-30 16:15:00,58.4,38.8,30.10,West,270,2.0,5.0,48,0.00,,,0.00,WeatherCatV1.23B14,2013-10-30 23:15:00,
2013-10-30 16:20:00,58.4,38.8,30.10,West,270,2.0,5.0,48,0.00,,,0.00,WeatherCatV1.23B14,2013-10-30 23:20:00,
2013-10-30 16:25:00,58.4,38.8,30.10,West,270,2.0,5.0,48,0.00,,,0.00,WeatherCatV1.23B14,2013-10-30 23:25:00,
2013-10-30 16:30:00,58.4,38.8,30.10,West,270,2.0,5.0,48,0.00,,,0.00,WeatherCatV1.23B14,2013-10-30 23:30:00,
2013-10-30 16:35:00,58.4,38.8,30.09,West,270,1.0,5.0,48,0.00,,,0.00,WeatherCatV1.23B14,2013-10-30 23:35:00,
2013-10-30 16:40:00,58.4,38.8,30.09,West,270,1.0,5.0,48,0.00,,,0.00,WeatherCatV1.23B14,2013-10-30 23:40:00,
2013-10-30 16:45:00,58.4,38.8,30.09,West,270,1.0,5.0,48,0.00,,,0.00,WeatherCatV1.23B14,2013-10-30 23:45:00,
2013-10-30 16:50:00,58.4,38.8,30.09,West,270,1.0,5.0,48,0.00,,,0.00,WeatherCatV1.23B14,2013-10-30 23:50:00,
2013-10-30 16:55:00,58.4,38.8,30.09,West,270,1.0,5.0,48,0.00,,,0.00,WeatherCatV1.23B14,2013-10-30 23:55:00,
2013-10-30 17:00:00,58.4,38.8,30.09,West,270,1.0,5.0,48,0.00,,,0.00,WeatherCatV1.23B14,2013-10-31 00:00:00,
2013-10-30 17:05:00,58.4,38.8,30.09,West,270,1.0,5.0,48,0.00,,,0.00,WeatherCatV1.23B14,2013-10-31 00:05:00,
2013-10-30 17:10:00,58.4,38.8,30.09,West,270,1.0,5.0,48,0.00,,,0.00,WeatherCatV1.23B14,2013-10-31 00:10:00,
2013-10-30 17:15:00,58.4,38.8,30.09,West,270,1.0,5.0,48,0.00,,,0.00,WeatherCatV1.23B14,2013-10-31 00:15:00,
2013-10-30 17:20:00,58.4,38.8,30.09,West,270,1.0,5.0,48,0.00,,,0.00,WeatherCatV1.23B14,2013-10-31 00:20:00,
2013-10-30 17:25:00,58.4,38.8,30.09,West,270,1.0,5.0,48,0.00,,,0.00,WeatherCatV1.23B14,2013-10-31 00:25:00,
2013-10-30 17:30:00,58.4,38.8,30.09,West,270,1.0,5.0,48,0.00,,,0.00,WeatherCatV1.23B14,2013-10-31 00:30:00,
2013-10-30 17:35:00,58.4,39.8,30.08,West,270,1.0,5.0,50,0.00,,,0.00,WeatherCatV1.23B14,2013-10-31 00:35:00,
2013-10-30 17:40:00,58.4,39.8,30.08,West,270,1.0,5.0,50,0.00,,,0.00,WeatherCatV1.23B14,2013-10-31 00:40:00,
2013-10-30 17:45:00,58.4,39.8,30.08,West,270,1.0,5.0,50,0.00,,,0.00,WeatherCatV1.23B14,2013-10-31 00:45:00,
2013-10-30 17:50:00,58.4,39.8,30.08,West,270,1.0,5.0,50,0.00,,,0.00,WeatherCatV1.23B14,2013-10-31 00:50:00,
2013-10-30 17:55:00,58.4,39.8,30.08,West,270,1.0,5.0,50,0.00,,,0.00,WeatherCatV1.23B14,2013-10-31 00:55:00,
2013-10-30 18:00:00,58.4,39.8,30.08,West,270,1.0,5.0,50,0.00,,,0.00,WeatherCatV1.23B14,2013-10-31 01:00:00,
2013-10-30 18:05:00,58.4,39.8,30.08,West,270,1.0,5.0,50,0.00,,,0.00,WeatherCatV1.23B14,2013-10-31 01:05:00,
2013-10-30 18:10:00,58.4,39.8,30.08,West,270,1.0,5.0,50,0.00,,,0.00,WeatherCatV1.23B14,2013-10-31 01:10:00,
2013-10-30 18:15:00,58.4,39.8,30.08,West,270,1.0,5.0,50,0.00,,,0.00,WeatherCatV1.23B14,2013-10-31 01:15:00,
2013-10-30 18:20:00,58.4,39.8,30.08,West,270,1.0,5.0,50,0.00,,,0.00,WeatherCatV1.23B14,2013-10-31 01:20:00,
2013-10-30 18:25:00,58.4,39.8,30.08,West,270,1.0,5.0,50,0.00,,,0.00,WeatherCatV1.23B14,2013-10-31 01:25:00,
2013-10-30 18:30:00,58.4,39.8,30.08,West,270,1.0,5.0,50,0.00,,,0.00,WeatherCatV1.23B14,2013-10-31 01:30:00,
2013-10-30 18:35:00,53.2,40.1,30.09,North,353,0.0,1.0,61,0.00,,,0.00,WeatherCatV1.23B14,2013-10-31 01:35:00,
2013-10-30 18:45:00,53.0,39.9,30.09,NNW,339,0.0,0.0,61,0.00,,,0.00,WeatherCatV1.23B14,2013-10-31 01:45:00,
2013-10-30 18:50:00,52.5,39.9,30.09,NNW,334,0.0,0.0,62,0.00,,,0.00,WeatherCatV1.23B14,2013-10-31 01:50:00,
2013-10-30 18:55:00,52.2,40.0,30.10,NNW,335,0.0,0.0,63,0.00,,,0.00,WeatherCatV1.23B14,2013-10-31 01:55:00,
2013-10-30 19:00:00,51.8,40.0,30.10,NNW,334,0.0,0.0,64,0.00,,,0.00,WeatherCatV1.23B14,2013-10-31 02:00:00,
2013-10-30 19:05:00,51.3,40.7,30.10,NNW,334,0.0,0.0,67,0.00,,,0.00,WeatherCatV1.23B14,2013-10-31 02:05:00,
2013-10-30 19:10:00,51.0,40.4,30.10,NNW,334,0.0,0.0,67,0.00,,,0.00,WeatherCatV1.23B14,2013-10-31 02:10:00,
2013-10-30 19:15:00,50.8,40.2,30.10,NNW,334,0.0,0.0,67,0.00,,,0.00,WeatherCatV1.23B14,2013-10-31 02:15:00,
2013-10-30 19:20:00,50.6,40.4,30.10,NNW,335,0.0,0.0,68,0.00,,,0.00,WeatherCatV1.23B14,2013-10-31 02:20:00,
2013-10-30 19:25:00,50.5,40.3,30.11,NNW,334,0.0,0.0,68,0.00,,,0.00,WeatherCatV1.23B14,2013-10-31 02:25:00,
2013-10-30 19:30:00,50.3,40.5,30.11,NNW,334,0.0,0.0,69,0.00,,,0.00,WeatherCatV1.23B14,2013-10-31 02:30:00,
2013-10-30 19:35:00,50.0,40.6,30.11,NNW,334,0.0,0.0,70,0.00,,,0.00,WeatherCatV1.23B14,2013-10-31 02:35:00,
2013-10-30 19:40:00,49.7,41.0,30.11,NNW,334,0.0,0.0,72,0.00,,,0.00,WeatherCatV1.23B14,2013-10-31 02:40:00,
2013-10-30 19:45:00,49.2,40.6,30.11,NNW,336,0.0,0.0,72,0.00,,,0.00,WeatherCatV1.23B14,2013-10-31 02:45:00,
2013-10-30 19:50:00,48.7,40.4,30.11,NNW,338,0.0,0.0,73,0.00,,,0.00,WeatherCatV1.23B14,2013-10-31 02:50:00,
2013-10-30 19:55:00,48.4,40.5,30.11,ENE,70,0.0,0.0,74,0.00,,,0.00,WeatherCatV1.23B14,2013-10-31 02:55:00,
2013-10-30 20:00:00,48.2,40.3,30.11,ENE,70,0.0,0.0,74,0.00,,,0.00,WeatherCatV1.23B14,2013-10-31 03:00:00,
2013-10-30 20:05:00,48.0,40.5,30.11,ENE,71,0.0,0.0,75,0.00,,,0.00,WeatherCatV1.23B14,2013-10-31 03:05:00,
2013-10-30 20:10:00,47.8,40.3,30.10,ENE,72,1.0,1.0,75,0.00,,,0.00,WeatherCatV1.23B14,2013-10-31 03:10:00,
2013-10-30 20:15:00,47.7,40.5,30.10,ENE,72,0.0,1.0,76,0.00,,,0.00,WeatherCatV1.23B14,2013-10-31 03:15:00,
2013-10-30 20:20:00,47.6,40.4,30.10,ENE,74,0.0,1.0,76,0.00,,,0.00,WeatherCatV1.23B14,2013-10-31 03:20:00,
2013-10-30 20:25:00,47.7,40.5,30.11,ENE,70,0.0,0.0,76,0.00,,,0.00,WeatherCatV1.23B14,2013-10-31 03:25:00,
2013-10-30 20:30:00,47.8,40.6,30.11,ENE,72,0.0,0.0,76,0.00,,,0.00,WeatherCatV1.23B14,2013-10-31 03:30:00,
2013-10-30 20:35:00,47.8,40.6,30.11,ENE,72,0.0,0.0,76,0.00,,,0.00,WeatherCatV1.23B14,2013-10-31 03:35:00,
2013-10-30 20:40:00,47.7,40.5,30.11,ENE,68,0.0,1.0,76,0.00,,,0.00,WeatherCatV1.23B14,2013-10-31 03:40:00,
2013-10-30 20:45:00,47.6,40.8,30.11,ENE,68,0.0,0.0,77,0.00,,,0.00,WeatherCatV1.23B14,2013-10-31 03:45:00,
2013-10-30 20:50:00,47.3,40.8,30.11,ENE,68,0.0,0.0,78,0.00,,,0.00,WeatherCatV1.23B14,2013-10-31 03:50:00,
2013-10-30 20:55:00,47.1,40.6,30.11,ENE,68,0.0,0.0,78,0.00,,,0.00,WeatherCatV1.23B14,2013-10-31 03:55:00,
2013-10-30 21:00:00,46.9,40.4,30.11,ENE,68,0.0,0.0,78,0.00,,,0.00,WeatherCatV1.23B14,2013-10-31 04:00:00,
2013-10-30 21:01:00,46.8,40.3,30.11,ENE,68,0.0,0.0,78,0.00,,,0.00,WeatherCatV1.23B14,2013-10-31 04:01:00,
2013-10-30 21:06:00,46.5,40.3,30.11,ENE,68,0.0,0.0,79,0.00,,,0.00,WeatherCatV1.23B14,2013-10-31 04:06:00,
2013-10-30 21:11:00,46.2,40.4,30.11,ENE,68,0.0,0.0,80,0.00,,,0.00,WeatherCatV1.23B14,2013-10-31 04:11:00,
2013-10-30 21:16:00,45.8,40.0,30.11,North,4,0.0,0.0,80,0.00,,,0.00,WeatherCatV1.23B14,2013-10-31 04:16:00,
2013-10-30 21:21:00,45.1,39.6,30.11,North,4,0.0,0.0,81,0.00,,,0.00,WeatherCatV1.23B14,2013-10-31 04:21:00,
2013-10-30 21:26:00,44.5,39.3,30.11,North,4,0.0,0.0,82,0.00,,,0.00,WeatherCatV1.23B14,2013-10-31 04:26:00,
2013-10-30 21:31:00,44.4,39.6,30.11,North,4,0.0,0.0,83,0.00,,,0.00,WeatherCatV1.23B14,2013-10-31 04:31:00,
2013-10-30 21:36:00,44.4,39.6,30.10,North,4,0.0,0.0,83,0.00,,,0.00,WeatherCatV1.23B14,2013-10-31 04:36:00,
2013-10-30 21:41:00,44.4,39.6,30.10,North,4,0.0,0.0,83,0.00,,,0.00,WeatherCatV1.23B14,2013-10-31 04:41:00,
2013-10-30 21:46:00,44.4,39.6,30.10,North,4,0.0,0.0,83,0.00,,,0.00,WeatherCatV1.23B14,2013-10-31 04:46:00,
2013-10-30 21:51:00,44.4,39.9,30.10,North,4,0.0,0.0,84,0.00,,,0.00,WeatherCatV1.23B14,2013-10-31 04:51:00,
2013-10-30 21:56:00,44.4,39.6,30.10,North,4,0.0,0.0,83,0.00,,,0.00,WeatherCatV1.23B14,2013-10-31 04:56:00,
2013-10-30 22:01:00,44.4,39.9,30.10,North,4,0.0,0.0,84,0.00,,,0.00,WeatherCatV1.23B14,2013-10-31 05:01:00,
2013-10-30 22:06:00,44.5,40.0,30.10,North,4,0.0,0.0,84,0.00,,,0.00,WeatherCatV1.23B14,2013-10-31 05:06:00,
2013-10-30 22:11:00,44.9,40.0,30.10,NE,44,0.0,0.0,83,0.00,,,0.00,WeatherCatV1.23B14,2013-10-31 05:11:00,
2013-10-30 22:16:00,44.9,39.4,30.11,NE,47,0.0,0.0,81,0.00,,,0.00,WeatherCatV1.23B14,2013-10-31 05:16:00,
2013-10-30 22:21:00,44.2,39.1,30.10,NE,47,0.0,0.0,82,0.00,,,0.00,WeatherCatV1.23B14,2013-10-31 05:21:00,
2013-10-30 22:26:00,43.9,39.1,30.10,NE,46,0.0,0.0,83,0.00,,,0.00,WeatherCatV1.23B14,2013-10-31 05:26:00,
2013-10-30 22:31:00,43.8,39.3,30.10,NE,46,0.0,0.0,84,0.00,,,0.00,WeatherCatV1.23B14,2013-10-31 05:31:00,
2013-10-30 22:36:00,43.9,39.4,30.11,NE,47,0.0,0.0,84,0.00,,,0.00,WeatherCatV1.23B14,2013-10-31 05:36:00,
2013-10-30 22:41:00,43.7,39.5,30.10,NE,47,0.0,0.0,85,0.00,,,0.00,WeatherCatV1.23B14,2013-10-31 05:41:00,
2013-10-30 22:46:00,43.9,39.1,30.11,NE,47,0.0,0.0,83,0.00,,,0.00,WeatherCatV1.23B14,2013-10-31 05:46:00,
2013-10-30 22:51:00,43.6,39.1,30.11,NE,47,0.0,0.0,84,0.00,,,0.00,WeatherCatV1.23B14,2013-10-31 05:51:00,
2013-10-30 22:56:00,43.5,39.3,30.11,NE,47,0.0,0.0,85,0.00,,,0.00,WeatherCatV1.23B14,2013-10-31 05:56:00,
2013-10-30 23:00:00,43.3,39.1,30.10,NE,47,0.0,0.0,85,0.00,,,0.00,WeatherCatV1.23B14,2013-10-31 06:00:00,
2013-10-30 23:05:00,43.3,39.1,30.10,NE,47,0.0,0.0,85,0.00,,,0.00,WeatherCatV1.23B14,2013-10-31 06:05:00,
2013-10-30 23:10:00,43.3,39.1,30.10,NE,47,0.0,0.0,85,0.00,,,0.00,WeatherCatV1.23B14,2013-10-31 06:10:00,
2013-10-30 23:15:00,43.3,39.1,30.10,NE,47,0.0,0.0,85,0.00,,,0.00,WeatherCatV1.23B14,2013-10-31 06:15:00,
2013-10-30 23:20:00,43.3,39.1,30.10,NE,47,0.0,0.0,85,0.00,,,0.00,WeatherCatV1.23B14,2013-10-31 06:20:00,
2013-10-30 23:25:00,43.3,39.1,30.10,NE,47,0.0,0.0,85,0.00,,,0.00,WeatherCatV1.23B14,2013-10-31 06:25:00,
2013-10-30 23:30:00,43.3,39.1,30.10,NE,47,0.0,0.0,85,0.00,,,0.00,WeatherCatV1.23B14,2013-10-31 06:30:00,
2013-10-30 23:35:00,43.3,39.1,30.10,NE,47,0.0,0.0,85,0.00,,,0.00,WeatherCatV1.23B14,2013-10-31 06:35:00,
2013-10-30 23:40:00,43.3,39.1,30.10,NE,47,0.0,0.0,85,0.00,,,0.00,WeatherCatV1.23B14,2013-10-31 06:40:00,
2013-10-30 23:45:00,43.3,39.1,30.10,NE,47,0.0,0.0,85,0.00,,,0.00,WeatherCatV1.23B14,2013-10-31 06:45:00,
2013-10-30 23:50:00,43.3,39.1,30.10,NE,47,0.0,0.0,85,0.00,,,0.00,WeatherCatV1.23B14,2013-10-31 06:50:00,
2013-10-30 23:55:00,43.3,39.1,30.10,NE,47,0.0,0.0,85,0.00,,,0.00,WeatherCatV1.23B14,2013-10-31 06:55:00,